Time;durP1;ratioP1;P1;durP2;ratioP2;P2;SDS_P1;SDS_P2;PMS_P1;PMS_P2;Temp;Humidity;BMP_temperature;BMP_pressure;BME280_temperature;BME280_humidity;BME280_pressure;Samples;Min_cycle;Max_cycle;Signal;HPM_P1;HPM_P2
2023/05/06 00:00:16;;;;;;;9.80;7.87;;;20.40;40.10;;;;;;5071565;28;20207;-52
2023/05/06 00:02:42;;;;;;;9.47;7.00;;;20.40;39.70;;;;;;5071677;28;20458;-52
2023/05/06 00:05:07;;;;;;;8.80;7.90;;;20.40;40.20;;;;;;5071678;28;20903;-51
2023/05/06 00:07:33;;;;;;;7.83;6.60;;;20.40;40.10;;;;;;5071662;28;20176;-52
2023/05/06 00:09:59;;;;;;;8.00;7.10;;;20.40;39.60;;;;;;5071607;28;20430;-52
2023/05/06 00:12:25;;;;;;;8.90;6.43;;;20.30;39.40;;;;;;5071431;28;20200;-52
2023/05/06 00:14:50;;;;;;;13.73;7.97;;;20.20;39.00;;;;;;5071503;28;20625;-52
2023/05/06 00:17:16;;;;;;;7.63;6.93;;;20.10;39.50;;;;;;5071475;28;20173;-52
2023/05/06 00:19:43;;;;;;;7.72;6.70;;;20.00;40.40;;;;;;5071689;28;20623;-52
2023/05/06 00:22:09;;;;;;;8.87;8.07;;;19.90;41.10;;;;;;5074723;28;20291;-52
2023/05/06 00:24:35;;;;;;;8.45;6.85;;;19.80;40.90;;;;;;5075185;28;20413;-52
2023/05/06 00:27:00;;;;;;;7.47;6.67;;;19.80;40.80;;;;;;5075126;28;20173;-52
2023/05/06 00:29:26;;;;;;;7.90;7.10;;;19.80;41.20;;;;;;5075311;28;20173;-52
2023/05/06 00:31:52;;;;;;;8.40;6.97;;;19.80;41.30;;;;;;5074666;28;20200;-52
2023/05/06 00:34:18;;;;;;;8.20;7.40;;;19.80;41.70;;;;;;5075036;28;20753;-52
2023/05/06 00:36:43;;;;;;;10.93;7.20;;;19.80;42.20;;;;;;5075017;28;20171;-52
2023/05/06 00:39:09;;;;;;;8.80;7.60;;;19.70;42.10;;;;;;5074986;28;20184;-52
2023/05/06 00:41:35;;;;;;;8.90;8.00;;;19.70;42.10;;;;;;5074773;28;20200;-52
2023/05/06 00:44:00;;;;;;;7.30;6.60;;;19.70;42.20;;;;;;5074543;28;20529;-52
2023/05/06 00:46:26;;;;;;;10.93;8.40;;;19.70;42.20;;;;;;5075004;28;20226;-51
2023/05/06 00:48:53;;;;;;;8.50;7.70;;;19.70;42.30;;;;;;5074930;28;20169;-52
2023/05/06 00:51:19;;;;;;;8.32;6.82;;;19.70;42.30;;;;;;5074909;28;20197;-51
2023/05/06 00:53:47;;;;;;;13.40;8.13;;;19.70;42.30;;;;;;5074402;28;20560;-52
2023/05/06 00:56:14;;;;;;;8.48;7.57;;;19.70;42.20;;;;;;5074696;28;20169;-52
2023/05/06 00:58:40;;;;;;;10.75;8.43;;;19.70;42.20;;;;;;5074522;28;20522;-52
2023/05/06 01:01:07;;;;;;;12.57;7.40;;;19.60;42.10;;;;;;5074406;28;20196;-52
2023/05/06 01:03:32;;;;;;;10.95;7.88;;;19.60;42.30;;;;;;5074276;28;20172;-52
2023/05/06 01:06:16;;;;;;;12.40;9.03;;;19.40;42.10;;;;;;5074456;28;20175;-52
2023/05/06 01:09:18;;;;;;;9.07;7.97;;;19.30;42.30;;;;;;5074765;28;20165;-51
2023/05/06 01:12:13;;;;;;;13.02;8.50;;;19.20;42.60;;;;;;5074318;28;20192;-51
2023/05/06 01:14:52;;;;;;;12.93;8.60;;;19.20;42.80;;;;;;5073970;28;20181;-52
2023/05/06 01:17:18;;;;;;;8.95;8.05;;;19.00;42.80;;;;;;5074323;28;20157;-52
2023/05/06 01:19:48;;;;;;;11.27;7.68;;;19.00;43.20;;;;;;5074088;28;20188;-52
2023/05/06 01:22:15;;;;;;;9.38;8.48;;;19.00;43.20;;;;;;5073817;28;20692;-52
2023/05/06 01:24:42;;;;;;;9.50;8.40;;;18.90;43.30;;;;;;5074052;28;20843;-52
2023/05/06 01:27:10;;;;;;;9.90;8.27;;;19.00;43.80;;;;;;5074169;28;20538;-51
2023/05/06 01:29:41;;;;;;;11.15;10.05;;;18.90;43.70;;;;;;5073911;28;20176;-52
2023/05/06 01:32:22;;;;;;;10.80;9.13;;;18.90;44.00;;;;;;5073459;28;20727;-52
2023/05/06 01:35:02;;;;;;;12.40;10.02;;;18.80;44.40;;;;;;5074016;28;20607;-51
2023/05/06 01:37:46;;;;;;;8.98;8.02;;;18.80;44.80;;;;;;5073934;28;20157;-52
2023/05/06 01:40:15;;;;;;;10.27;9.38;;;18.80;44.40;;;;;;5073798;28;20188;-52
2023/05/06 01:42:43;;;;;;;13.50;9.52;;;18.80;44.80;;;;;;5073390;28;20196;-52
2023/05/06 01:45:10;;;;;;;11.70;9.45;;;18.70;44.90;;;;;;5073873;28;20169;-52
2023/05/06 01:47:38;;;;;;;12.23;9.65;;;18.80;45.40;;;;;;5073666;28;20164;-52
2023/05/06 01:50:04;;;;;;;10.52;9.43;;;18.80;45.40;;;;;;5073597;28;20187;-52
2023/05/06 01:52:29;;;;;;;9.63;8.63;;;18.80;45.80;;;;;;5073291;28;20180;-52
2023/05/06 01:54:55;;;;;;;11.10;8.80;;;18.80;45.60;;;;;;5073429;28;20177;-52
2023/05/06 01:57:21;;;;;;;12.27;8.50;;;18.80;45.60;;;;;;5073737;28;20278;-51
2023/05/06 01:59:46;;;;;;;12.63;10.43;;;18.80;46.10;;;;;;5073497;28;20179;-52
2023/05/06 02:02:12;;;;;;;11.73;10.10;;;18.70;46.10;;;;;;5073065;28;20576;-52
2023/05/06 02:04:38;;;;;;;13.53;8.50;;;18.70;46.10;;;;;;5073577;28;20176;-52
2023/05/06 02:07:04;;;;;;;9.90;8.93;;;18.70;46.60;;;;;;5073317;28;20817;-51
2023/05/06 02:09:29;;;;;;;11.20;10.00;;;18.70;46.40;;;;;;5073086;28;20184;-51
2023/05/06 02:11:55;;;;;;;10.20;8.50;;;18.70;46.30;;;;;;5072879;28;20286;-51
2023/05/06 02:14:21;;;;;;;10.80;9.70;;;18.70;46.70;;;;;;5073273;28;20180;-51
2023/05/06 02:16:47;;;;;;;9.87;8.90;;;18.70;46.80;;;;;;5073371;28;20204;-51
2023/05/06 02:19:12;;;;;;;10.70;9.60;;;18.70;46.90;;;;;;5073072;28;20233;-51
2023/05/06 02:21:38;;;;;;;9.30;8.30;;;18.60;47.00;;;;;;5072719;28;20751;-51
2023/05/06 02:24:04;;;;;;;12.60;9.20;;;18.60;47.20;;;;;;5072616;28;20183;-51
2023/05/06 02:26:30;;;;;;;10.55;9.55;;;18.60;47.00;;;;;;5072794;28;20172;-51
2023/05/06 02:28:56;;;;;;;10.50;9.50;;;18.50;47.50;;;;;;5072970;28;20184;-51
2023/05/06 02:31:22;;;;;;;12.87;10.10;;;18.50;47.10;;;;;;5072733;28;20633;-51
2023/05/06 02:33:47;;;;;;;10.27;9.27;;;18.60;47.30;;;;;;5072570;28;20728;-51
2023/05/06 02:36:13;;;;;;;10.27;9.27;;;18.60;47.00;;;;;;5072780;28;20207;-51
2023/05/06 02:38:39;;;;;;;10.40;9.00;;;18.60;46.90;;;;;;5072655;28;20160;-52
2023/05/06 02:41:05;;;;;;;14.87;11.20;;;18.60;46.90;;;;;;5072433;28;20868;-51
2023/05/06 02:43:31;;;;;;;12.13;9.50;;;18.70;47.10;;;;;;5071760;28;20399;-51
2023/05/06 02:45:56;;;;;;;10.17;9.17;;;18.70;47.00;;;;;;5072870;28;20248;-51
2023/05/06 02:48:22;;;;;;;12.63;9.90;;;18.70;47.40;;;;;;5072453;28;20168;-51
2023/05/06 02:50:48;;;;;;;13.90;10.40;;;18.60;46.90;;;;;;5072343;28;20203;-51
2023/05/06 02:53:14;;;;;;;10.02;9.00;;;18.60;46.90;;;;;;5072216;28;20218;-51
2023/05/06 02:55:40;;;;;;;8.93;8.17;;;18.60;47.10;;;;;;5072314;28;20185;-51
2023/05/06 02:58:05;;;;;;;9.60;8.70;;;18.60;47.00;;;;;;5072356;28;20248;-51
2023/05/06 03:00:31;;;;;;;10.10;9.20;;;18.60;47.00;;;;;;5072222;28;20181;-51
2023/05/06 03:02:57;;;;;;;11.87;8.73;;;18.60;47.00;;;;;;5071992;28;20192;-51
2023/05/06 03:05:22;;;;;;;11.13;9.30;;;18.60;47.30;;;;;;5072201;28;20177;-52
2023/05/06 03:07:48;;;;;;;9.67;8.67;;;18.70;47.50;;;;;;5072223;28;20168;-52
2023/05/06 03:10:14;;;;;;;10.37;9.40;;;18.70;47.50;;;;;;5072124;28;20181;-52
2023/05/06 03:12:40;;;;;;;12.90;10.10;;;18.70;47.70;;;;;;5071932;28;20183;-52
2023/05/06 03:15:06;;;;;;;10.80;9.70;;;18.80;47.60;;;;;;5072146;28;20164;-52
2023/05/06 03:17:32;;;;;;;10.88;9.70;;;18.70;47.70;;;;;;5072113;28;20172;-52
2023/05/06 03:19:57;;;;;;;10.47;9.47;;;18.80;47.40;;;;;;5072071;28;20557;-52
2023/05/06 03:22:23;;;;;;;12.43;8.90;;;18.90;47.40;;;;;;5071651;28;20478;-52
2023/05/06 03:24:49;;;;;;;12.03;9.20;;;18.90;47.40;;;;;;5072014;28;20273;-51
2023/05/06 03:27:15;;;;;;;9.67;8.57;;;18.90;47.10;;;;;;5072016;28;20546;-52
2023/05/06 03:29:40;;;;;;;13.23;8.13;;;18.90;47.10;;;;;;5071888;28;20895;-52
2023/05/06 03:32:06;;;;;;;9.17;8.23;;;18.90;47.30;;;;;;5071705;28;20185;-52
2023/05/06 03:34:32;;;;;;;10.13;9.13;;;18.90;47.60;;;;;;5071917;28;20164;-52
2023/05/06 03:36:59;;;;;;;10.17;8.43;;;18.90;47.10;;;;;;5071841;28;20637;-51
2023/05/06 03:39:24;;;;;;;10.63;9.63;;;18.90;47.20;;;;;;5071970;28;20168;-52
2023/05/06 03:41:50;;;;;;;10.13;9.13;;;18.90;47.60;;;;;;5071518;28;20684;-51
2023/05/06 03:44:16;;;;;;;10.20;9.17;;;19.00;47.70;;;;;;5071892;28;20710;-52
2023/05/06 03:46:41;;;;;;;10.03;9.00;;;19.00;47.60;;;;;;5071859;28;20165;-52
2023/05/06 03:49:07;;;;;;;12.23;8.83;;;18.90;47.60;;;;;;5071913;28;20164;-52
2023/05/06 03:51:34;;;;;;;12.13;9.10;;;18.90;47.80;;;;;;5071708;28;20240;-51
2023/05/06 03:54:00;;;;;;;10.98;9.45;;;18.80;48.40;;;;;;5071493;28;20687;-52
2023/05/06 03:56:26;;;;;;;14.27;8.55;;;18.80;48.60;;;;;;5074308;28;20168;-54
2023/05/06 03:58:54;;;;;;;9.90;8.90;;;18.80;48.30;;;;;;5075787;28;20169;-52
2023/05/06 04:01:20;;;;;;;9.85;8.88;;;18.80;48.40;;;;;;5075550;28;20533;-51
2023/05/06 04:03:46;;;;;;;11.80;10.60;;;18.80;48.30;;;;;;5075454;28;20676;-54
2023/05/06 04:06:12;;;;;;;10.30;8.90;;;18.80;48.30;;;;;;5075470;28;20895;-52
2023/05/06 04:08:38;;;;;;;10.70;9.60;;;18.80;48.20;;;;;;5075604;28;20252;-52
2023/05/06 04:11:04;;;;;;;10.77;9.77;;;18.90;48.50;;;;;;5075440;28;20197;-54
2023/05/06 04:13:31;;;;;;;11.00;9.90;;;18.80;48.40;;;;;;5075554;28;20590;-51
2023/05/06 04:15:57;;;;;;;10.27;8.82;;;18.80;48.70;;;;;;5075383;28;20211;-52
2023/05/06 04:18:23;;;;;;;11.93;9.75;;;18.90;48.90;;;;;;5075347;28;20663;-53
2023/05/06 04:20:49;;;;;;;12.60;10.40;;;19.00;48.70;;;;;;5075107;28;20196;-51
2023/05/06 04:23:15;;;;;;;10.73;9.63;;;18.90;48.60;;;;;;5075061;28;20176;-53
2023/05/06 04:25:47;;;;;;;11.13;9.77;;;18.80;49.00;;;;;;5075084;28;20176;-53
2023/05/06 04:28:15;;;;;;;12.82;10.18;;;18.80;49.10;;;;;;5075105;28;20421;-50
2023/05/06 04:30:42;;;;;;;11.38;10.20;;;18.70;49.60;;;;;;5074935;28;20239;-53
2023/05/06 04:33:07;;;;;;;12.02;10.57;;;18.70;49.50;;;;;;5074919;28;20239;-51
2023/05/06 04:35:33;;;;;;;10.20;9.20;;;18.70;49.70;;;;;;5074911;28;20628;-51
2023/05/06 04:37:59;;;;;;;11.03;9.93;;;18.70;49.90;;;;;;5075033;28;20172;-51
2023/05/06 04:40:26;;;;;;;11.98;8.90;;;18.60;49.50;;;;;;5074793;28;20245;-53
2023/05/06 04:42:52;;;;;;;13.18;10.38;;;18.60;49.90;;;;;;5074614;28;20200;-51
2023/05/06 04:45:18;;;;;;;10.20;9.10;;;18.50;49.80;;;;;;5074853;28;20169;-51
2023/05/06 04:47:44;;;;;;;11.73;10.30;;;18.50;49.90;;;;;;5074787;28;20226;-54
2023/05/06 04:50:10;;;;;;;10.73;9.53;;;18.60;50.00;;;;;;5074769;28;20246;-51
2023/05/06 04:52:36;;;;;;;10.35;9.35;;;18.70;50.10;;;;;;5074471;28;20398;-51
2023/05/06 04:55:03;;;;;;;12.17;10.83;;;18.80;49.80;;;;;;5074682;28;20168;-53
2023/05/06 04:57:30;;;;;;;10.05;9.10;;;18.80;49.60;;;;;;5074684;28;20177;-51
2023/05/06 04:59:55;;;;;;;10.68;9.60;;;18.90;49.70;;;;;;5074619;28;20199;-51
2023/05/06 05:02:21;;;;;;;10.33;9.30;;;18.90;49.70;;;;;;5074167;28;20205;-53
2023/05/06 05:04:47;;;;;;;11.57;10.47;;;18.90;49.70;;;;;;5074533;28;20168;-52
2023/05/06 05:07:12;;;;;;;11.40;10.23;;;18.90;49.60;;;;;;5073990;28;20688;-54
2023/05/06 05:09:38;;;;;;;11.30;9.93;;;19.00;49.60;;;;;;5074287;28;20645;-53
2023/05/06 05:12:04;;;;;;;13.70;12.30;;;19.00;49.50;;;;;;5074184;28;20191;-51
2023/05/06 05:14:30;;;;;;;12.07;10.87;;;19.10;49.70;;;;;;5074309;28;20176;-53
2023/05/06 05:16:56;;;;;;;13.13;11.83;;;19.10;49.60;;;;;;5074255;28;20485;-53
2023/05/06 05:19:21;;;;;;;13.67;11.27;;;19.10;49.60;;;;;;5074258;28;20239;-51
2023/05/06 05:21:48;;;;;;;14.63;13.07;;;19.10;49.70;;;;;;5073880;28;20746;-54
2023/05/06 05:24:13;;;;;;;12.45;10.98;;;19.20;49.70;;;;;;5074107;28;20533;-54
2023/05/06 05:26:39;;;;;;;12.97;11.67;;;19.20;49.70;;;;;;5074095;28;20169;-51
2023/05/06 05:29:05;;;;;;;14.40;12.87;;;19.20;49.70;;;;;;5074117;28;20210;-51
2023/05/06 05:31:31;;;;;;;12.02;10.18;;;19.20;49.80;;;;;;5073823;28;20208;-54
2023/05/06 05:33:57;;;;;;;14.93;11.23;;;19.30;50.10;;;;;;5073997;28;20598;-51
2023/05/06 05:36:23;;;;;;;14.40;12.87;;;19.30;50.10;;;;;;5073898;28;20410;-51
2023/05/06 05:38:49;;;;;;;15.23;13.83;;;19.30;50.30;;;;;;5073927;28;20164;-52
2023/05/06 05:41:15;;;;;;;21.88;15.23;;;19.30;50.30;;;;;;5073662;28;20815;-54
2023/05/06 05:43:41;;;;;;;15.60;13.95;;;19.30;50.40;;;;;;5073540;28;20199;-51
2023/05/06 05:46:07;;;;;;;16.03;14.37;;;19.30;50.10;;;;;;5073632;28;20193;-54
2023/05/06 05:48:33;;;;;;;15.63;14.03;;;19.30;50.10;;;;;;5073693;28;20200;-51
2023/05/06 05:51:00;;;;;;;17.52;15.52;;;19.30;50.00;;;;;;5073558;28;20196;-54
2023/05/06 05:53:26;;;;;;;16.80;13.77;;;19.30;49.80;;;;;;5073326;28;20196;-51
2023/05/06 05:55:52;;;;;;;16.73;14.97;;;19.30;49.80;;;;;;5073556;28;20255;-54
2023/05/06 05:58:18;;;;;;;16.90;13.97;;;19.30;49.70;;;;;;5073407;28;20399;-51
2023/05/06 06:00:43;;;;;;;15.87;14.20;;;19.30;49.70;;;;;;5073329;28;20185;-51
2023/05/06 06:03:10;;;;;;;14.50;13.10;;;19.30;49.70;;;;;;5073135;28;20695;-53
2023/05/06 06:05:36;;;;;;;20.27;17.83;;;19.30;49.60;;;;;;5073286;28;20168;-52
2023/05/06 06:08:02;;;;;;;17.70;16.10;;;19.30;49.60;;;;;;5073484;28;20177;-51
2023/05/06 06:10:27;;;;;;;16.08;14.45;;;19.30;49.50;;;;;;5073117;28;20427;-52
2023/05/06 06:12:53;;;;;;;17.07;15.30;;;19.30;49.90;;;;;;5073041;28;20179;-53
2023/05/06 06:15:20;;;;;;;19.57;15.97;;;19.30;49.80;;;;;;5073074;28;20183;-52
2023/05/06 06:17:45;;;;;;;18.67;16.08;;;19.30;49.60;;;;;;5072310;28;20173;-54
2023/05/06 06:20:12;;;;;;;16.70;14.93;;;19.40;50.00;;;;;;5072948;28;20198;-54
2023/05/06 06:22:38;;;;;;;18.48;16.42;;;19.40;49.70;;;;;;5072661;28;20196;-52
2023/05/06 06:25:04;;;;;;;17.23;15.47;;;19.40;49.50;;;;;;5072970;28;20659;-54
2023/05/06 06:27:34;;;;;;;19.45;16.95;;;19.40;49.50;;;;;;5072852;28;20222;-53
2023/05/06 06:30:00;;;;;;;16.25;14.65;;;19.50;49.50;;;;;;5072714;28;20219;-52
2023/05/06 06:32:25;;;;;;;19.37;17.17;;;19.50;49.40;;;;;;5072560;28;20215;-54
2023/05/06 06:34:51;;;;;;;17.90;16.00;;;19.50;49.20;;;;;;5072755;28;20514;-54
2023/05/06 06:37:17;;;;;;;18.17;15.93;;;19.50;49.20;;;;;;5072736;28;20585;-52
2023/05/06 06:39:42;;;;;;;16.67;15.00;;;19.60;49.40;;;;;;5072538;28;20176;-53
2023/05/06 06:42:08;;;;;;;16.27;14.67;;;19.60;49.30;;;;;;5072299;28;20231;-51
2023/05/06 06:44:34;;;;;;;22.27;18.00;;;19.70;49.30;;;;;;5072528;28;20165;-52
2023/05/06 06:47:00;;;;;;;17.23;15.38;;;19.80;49.40;;;;;;5072557;28;20176;-54
2023/05/06 06:49:26;;;;;;;18.47;16.57;;;19.80;49.50;;;;;;5072506;28;20173;-54
2023/05/06 06:51:52;;;;;;;16.15;14.57;;;19.90;49.10;;;;;;5072115;28;20188;-52
2023/05/06 06:54:18;;;;;;;16.27;14.57;;;20.00;48.90;;;;;;5072385;28;20195;-52
2023/05/06 06:56:43;;;;;;;16.77;15.13;;;20.10;49.10;;;;;;5072369;28;20460;-53
2023/05/06 06:59:09;;;;;;;17.23;15.17;;;20.10;49.00;;;;;;5072305;28;20168;-52
2023/05/06 07:01:35;;;;;;;23.20;15.10;;;20.20;48.80;;;;;;5072139;28;20279;-52
2023/05/06 07:04:01;;;;;;;17.03;15.03;;;20.30;48.40;;;;;;5072094;28;20456;-54
2023/05/06 07:06:26;;;;;;;16.97;15.17;;;20.20;47.90;;;;;;5072261;28;20156;-54
2023/05/06 07:08:52;;;;;;;15.80;14.20;;;20.20;47.90;;;;;;5072276;28;20244;-55
2023/05/06 07:11:18;;;;;;;14.60;13.13;;;20.20;48.50;;;;;;5072195;28;20235;-51
2023/05/06 07:13:44;;;;;;;15.00;13.50;;;20.20;48.60;;;;;;5072109;28;20256;-51
2023/05/06 07:16:09;;;;;;;14.43;13.00;;;20.20;48.10;;;;;;5072102;28;20196;-53
2023/05/06 07:18:35;;;;;;;14.80;13.40;;;20.20;47.50;;;;;;5072131;28;20164;-52
2023/05/06 07:21:01;;;;;;;15.77;13.13;;;20.10;47.60;;;;;;5071976;28;20725;-55
2023/05/06 07:23:27;;;;;;;16.70;14.93;;;20.10;47.70;;;;;;5071840;28;20172;-51
2023/05/06 07:25:52;;;;;;;14.60;13.00;;;20.10;47.40;;;;;;5072039;28;20399;-52
2023/05/06 07:28:18;;;;;;;15.27;13.93;;;20.10;46.90;;;;;;5071978;28;20173;-54
2023/05/06 07:30:44;;;;;;;22.47;15.20;;;20.00;47.10;;;;;;5071624;28;20245;-54
2023/05/06 07:33:10;;;;;;;18.70;16.73;;;20.00;47.00;;;;;;5071704;28;20172;-51
2023/05/06 07:35:36;;;;;;;17.87;16.13;;;20.00;47.30;;;;;;5071894;28;20173;-53
2023/05/06 07:38:02;;;;;;;20.10;16.85;;;20.00;46.60;;;;;;5071830;28;20279;-53
2023/05/06 07:40:28;;;;;;;23.10;19.97;;;19.90;46.80;;;;;;5071856;28;20283;-53
2023/05/06 07:42:54;;;;;;;19.90;17.70;;;19.90;47.00;;;;;;5071616;28;20196;-54
2023/05/06 07:45:22;;;;;;;21.75;19.42;;;19.80;47.10;;;;;;5071868;28;20169;-54
2023/05/06 07:47:48;;;;;;;20.20;18.10;;;19.80;46.70;;;;;;5071891;28;20648;-54
2023/05/06 07:50:13;;;;;;;21.97;19.97;;;19.80;46.90;;;;;;5071825;28;20195;-53
2023/05/06 07:52:39;;;;;;;21.50;19.40;;;19.80;47.20;;;;;;5071586;28;20230;-51
2023/05/06 07:55:08;;;;;;;19.93;18.03;;;19.80;47.40;;;;;;5071768;28;20176;-54
2023/05/06 07:57:34;;;;;;;23.35;20.83;;;19.70;47.10;;;;;;5071615;28;20169;-53
2023/05/06 07:59:59;;;;;;;21.80;19.57;;;19.70;47.40;;;;;;5071551;28;20195;-53
2023/05/06 08:02:25;;;;;;;22.00;19.63;;;19.40;47.80;;;;;;5071336;28;20946;-54
2023/05/06 08:04:51;;;;;;;21.80;19.60;;;19.40;48.10;;;;;;5071632;28;20161;-54
2023/05/06 08:07:17;;;;;;;23.73;21.30;;;19.40;48.30;;;;;;5071553;28;20403;-54
2023/05/06 08:09:43;;;;;;;30.13;24.65;;;19.50;48.60;;;;;;5071508;28;20452;-52
2023/05/06 08:12:09;;;;;;;23.30;20.90;;;19.50;48.30;;;;;;5071222;28;20541;-54
2023/05/06 08:14:35;;;;;;;22.17;19.77;;;19.50;48.10;;;;;;5071401;28;20175;-53
2023/05/06 08:17:01;;;;;;;21.17;19.13;;;19.50;47.90;;;;;;5071454;28;20603;-52
2023/05/06 08:19:27;;;;;;;22.35;18.65;;;19.60;47.90;;;;;;5071490;28;20199;-53
2023/05/06 08:21:53;;;;;;;22.37;19.83;;;19.70;47.90;;;;;;5071075;28;20561;-54
2023/05/06 08:24:19;;;;;;;24.00;20.37;;;19.60;47.80;;;;;;5071507;28;20529;-52
2023/05/06 08:26:45;;;;;;;23.02;20.00;;;19.70;47.80;;;;;;5071313;28;20167;-54
2023/05/06 08:29:10;;;;;;;25.60;20.03;;;19.60;47.80;;;;;;5071410;28;20169;-54
2023/05/06 08:31:36;;;;;;;22.47;20.07;;;19.60;47.30;;;;;;5071120;28;20293;-52
2023/05/06 08:34:02;;;;;;;27.23;22.30;;;19.60;46.90;;;;;;5071144;28;20178;-54
2023/05/06 08:36:28;;;;;;;24.03;18.33;;;19.50;46.90;;;;;;5071283;28;20169;-54
2023/05/06 08:38:53;;;;;;;24.23;19.73;;;19.50;47.00;;;;;;5071369;28;20196;-51
2023/05/06 08:41:20;;;;;;;21.60;17.50;;;19.50;47.00;;;;;;5071811;28;20275;-54
2023/05/06 08:43:48;;;;;;;21.40;17.55;;;19.50;46.40;;;;;;5074700;28;20502;-52
2023/05/06 08:46:15;;;;;;;21.30;19.00;;;19.50;46.40;;;;;;5074725;28;20207;-51
2023/05/06 08:48:41;;;;;;;23.52;20.25;;;19.50;46.70;;;;;;5074696;28;20173;-55
2023/05/06 08:51:08;;;;;;;23.80;18.50;;;19.50;46.60;;;;;;5074599;28;20240;-52
2023/05/06 08:53:34;;;;;;;23.05;18.48;;;19.60;46.50;;;;;;5074512;28;20403;-54
2023/05/06 08:56:07;;;;;;;21.10;19.02;;;19.60;46.20;;;;;;5074665;28;20177;-51
2023/05/06 08:58:34;;;;;;;25.35;20.80;;;19.60;46.20;;;;;;5074650;28;20169;-54
2023/05/06 09:01:03;;;;;;;20.67;18.40;;;19.60;46.00;;;;;;5074410;28;20199;-54
2023/05/06 09:03:28;;;;;;;24.05;20.70;;;19.60;46.30;;;;;;5074318;28;20168;-51
2023/05/06 09:05:56;;;;;;;21.37;19.10;;;19.60;46.20;;;;;;5074422;28;20206;-52
2023/05/06 09:08:22;;;;;;;22.60;19.48;;;19.60;46.50;;;;;;5074334;28;20486;-52
2023/05/06 09:10:47;;;;;;;22.27;18.47;;;19.70;46.30;;;;;;5074369;28;20271;-54
2023/05/06 09:13:18;;;;;;;26.50;20.17;;;19.70;46.30;;;;;;5074177;28;20164;-54
2023/05/06 09:15:47;;;;;;;22.88;20.40;;;19.70;46.10;;;;;;5074413;28;20165;-52
2023/05/06 09:18:14;;;;;;;23.40;20.88;;;19.80;45.90;;;;;;5074352;28;20179;-54
2023/05/06 09:20:43;;;;;;;23.92;21.45;;;19.80;45.30;;;;;;5074010;28;20201;-54
2023/05/06 09:23:11;;;;;;;23.70;21.02;;;19.70;45.50;;;;;;5073938;28;20254;-52
2023/05/06 09:25:37;;;;;;;25.48;20.55;;;19.70;45.50;;;;;;5074096;28;20165;-54
2023/05/06 09:28:08;;;;;;;23.73;19.65;;;19.70;45.70;;;;;;5074129;28;20173;-54
2023/05/06 09:30:39;;;;;;;25.20;21.23;;;19.80;46.60;;;;;;5073901;28;20195;-53
2023/05/06 09:33:07;;;;;;;24.35;20.73;;;19.90;45.90;;;;;;5073703;28;20690;-54
2023/05/06 09:35:38;;;;;;;27.98;20.25;;;19.90;45.90;;;;;;5073823;28;20729;-52
2023/05/06 09:38:04;;;;;;;22.95;20.45;;;19.90;45.70;;;;;;5073953;28;20175;-54
2023/05/06 09:40:30;;;;;;;24.45;21.83;;;19.90;45.30;;;;;;5073768;28;20188;-54
2023/05/06 09:42:56;;;;;;;22.70;19.23;;;19.90;45.00;;;;;;5073487;28;20196;-52
2023/05/06 09:45:23;;;;;;;25.40;20.25;;;19.90;45.00;;;;;;5073761;28;20161;-51
2023/05/06 09:47:52;;;;;;;26.38;20.90;;;19.90;45.30;;;;;;5073715;28;20222;-54
2023/05/06 09:50:20;;;;;;;22.42;20.20;;;20.00;45.80;;;;;;5073514;28;20290;-54
2023/05/06 09:52:47;;;;;;;20.65;16.90;;;20.00;45.30;;;;;;5073363;28;20180;-51
2023/05/06 09:55:13;;;;;;;18.55;16.50;;;20.00;44.60;;;;;;5073445;28;20181;-54
2023/05/06 09:57:40;;;;;;;20.10;17.90;;;20.10;44.90;;;;;;5073455;28;20172;-54
2023/05/06 10:00:10;;;;;;;24.52;17.45;;;20.20;46.00;;;;;;5073474;28;20188;-53
2023/05/06 10:02:38;;;;;;;20.15;16.38;;;20.40;46.00;;;;;;5073332;28;20224;-53
2023/05/06 10:05:04;;;;;;;17.67;15.85;;;20.60;44.80;;;;;;5073292;28;20169;-54
2023/05/06 10:07:31;;;;;;;16.70;14.68;;;20.60;43.70;;;;;;5073325;28;20842;-54
2023/05/06 10:09:58;;;;;;;20.77;16.17;;;20.60;43.80;;;;;;5073246;28;20212;-53
2023/05/06 10:12:25;;;;;;;20.35;16.35;;;20.60;43.60;;;;;;5073072;28;20591;-53
2023/05/06 10:14:50;;;;;;;25.27;19.33;;;20.50;43.40;;;;;;5073149;28;20177;-52
2023/05/06 10:17:17;;;;;;;20.63;18.53;;;20.50;42.80;;;;;;5072573;28;20269;-53
2023/05/06 10:19:45;;;;;;;25.90;19.05;;;20.40;43.40;;;;;;5072710;28;20161;-54
2023/05/06 10:22:29;;;;;;;20.55;18.48;;;20.40;43.90;;;;;;5072790;28;20204;-51
2023/05/06 10:25:11;;;;;;;24.23;19.30;;;20.10;43.80;;;;;;5072909;28;20164;-54
2023/05/06 10:27:42;;;;;;;23.42;20.02;;;20.00;43.80;;;;;;5072878;28;20268;-54
2023/05/06 10:30:09;;;;;;;22.67;19.77;;;20.00;44.70;;;;;;5072772;28;20197;-55
2023/05/06 10:32:40;;;;;;;26.67;21.15;;;19.90;44.70;;;;;;5072668;28;20192;-51
2023/05/06 10:35:19;;;;;;;21.27;17.55;;;20.00;44.70;;;;;;5072843;28;20567;-53
2023/05/06 10:37:47;;;;;;;20.92;18.70;;;20.00;44.50;;;;;;5072704;28;20541;-53
2023/05/06 10:40:14;;;;;;;23.63;20.10;;;20.00;44.10;;;;;;5072597;28;20239;-52
2023/05/06 10:42:39;;;;;;;20.52;18.23;;;20.00;43.80;;;;;;5072504;28;20275;-54
2023/05/06 10:45:07;;;;;;;21.90;18.87;;;20.00;44.20;;;;;;5072606;28;20256;-52
2023/05/06 10:47:54;;;;;;;22.77;18.17;;;20.10;44.20;;;;;;5072510;28;20172;-53
2023/05/06 10:50:22;;;;;;;21.52;19.20;;;20.10;44.00;;;;;;5072306;28;20177;-52
2023/05/06 10:52:58;;;;;;;19.35;17.35;;;20.00;43.80;;;;;;5072291;28;20188;-51
2023/05/06 10:55:34;;;;;;;23.08;18.70;;;20.00;44.00;;;;;;5072373;28;20240;-54
2023/05/06 10:58:13;;;;;;;22.85;19.10;;;20.00;44.00;;;;;;5072419;28;20215;-51
2023/05/06 11:00:38;;;;;;;21.33;17.95;;;19.90;43.90;;;;;;5072212;28;20203;-53
2023/05/06 11:03:10;;;;;;;19.23;17.27;;;19.80;43.60;;;;;;5071971;28;20279;-53
2023/05/06 11:05:51;;;;;;;20.15;17.00;;;19.70;44.00;;;;;;5071842;28;20708;-54
2023/05/06 11:08:25;;;;;;;20.13;18.15;;;19.80;44.00;;;;;;5072315;28;20652;-54
2023/05/06 11:10:51;;;;;;;19.25;17.25;;;19.90;44.50;;;;;;5072152;28;20703;-54
2023/05/06 11:13:33;;;;;;;21.83;19.37;;;19.90;44.70;;;;;;5071966;28;20172;-54
2023/05/06 11:16:00;;;;;;;18.48;16.33;;;20.00;44.50;;;;;;5072220;28;20444;-54
2023/05/06 11:18:26;;;;;;;22.67;17.27;;;20.10;43.90;;;;;;5072127;28;20222;-51
2023/05/06 11:21:01;;;;;;;16.73;14.77;;;20.20;43.80;;;;;;5072041;28;20188;-54
2023/05/06 11:23:53;;;;;;;18.73;15.10;;;20.20;43.20;;;;;;5071903;28;20288;-51
2023/05/06 11:26:19;;;;;;;16.25;14.52;;;20.20;43.50;;;;;;5071508;28;20181;-54
2023/05/06 11:28:46;;;;;;;14.90;12.90;;;20.20;43.30;;;;;;5072034;28;20191;-52
2023/05/06 11:31:13;;;;;;;15.55;13.63;;;20.30;42.80;;;;;;5071755;28;20453;-54
2023/05/06 11:33:45;;;;;;;15.55;13.77;;;20.30;42.80;;;;;;5071715;28;20164;-54
2023/05/06 11:36:16;;;;;;;14.80;13.20;;;20.40;42.80;;;;;;5071865;28;20160;-52
2023/05/06 11:38:51;;;;;;;14.00;12.48;;;20.40;42.30;;;;;;5071957;28;20567;-52
2023/05/06 11:41:18;;;;;;;14.05;12.07;;;20.50;42.30;;;;;;5071792;28;20200;-54
2023/05/06 11:43:51;;;;;;;13.40;12.10;;;20.60;42.50;;;;;;5071581;28;20173;-53
2023/05/06 11:46:21;;;;;;;13.13;11.82;;;20.70;41.60;;;;;;5071815;28;20411;-54
2023/05/06 11:48:47;;;;;;;14.67;12.73;;;20.70;42.30;;;;;;5071820;28;20165;-53
2023/05/06 11:51:13;;;;;;;16.53;11.57;;;20.80;41.70;;;;;;5071787;28;20423;-52
2023/05/06 11:53:39;;;;;;;12.97;11.67;;;20.90;41.90;;;;;;5071653;28;20403;-54
2023/05/06 11:56:07;;;;;;;14.83;12.40;;;21.00;41.30;;;;;;5071830;28;20168;-52
2023/05/06 11:58:33;;;;;;;11.87;10.67;;;21.10;42.00;;;;;;5071721;28;20407;-52
2023/05/06 12:01:00;;;;;;;20.73;14.30;;;21.30;41.80;;;;;;5071645;28;20415;-55
2023/05/06 12:03:28;;;;;;;12.53;11.07;;;21.30;41.70;;;;;;5071349;28;20447;-51
2023/05/06 12:05:55;;;;;;;15.03;13.30;;;21.50;41.20;;;;;;5071570;28;20922;-54
2023/05/06 12:08:31;;;;;;;13.77;12.37;;;21.50;41.20;;;;;;5071639;28;20407;-55
2023/05/06 12:11:01;;;;;;;26.10;18.60;;;21.70;41.40;;;;;;5071638;28;20418;-52
2023/05/06 12:13:28;;;;;;;16.70;14.90;;;21.80;41.30;;;;;;5071406;28;20395;-54
2023/05/06 12:15:54;;;;;;;22.60;16.20;;;21.90;40.60;;;;;;5071453;28;20407;-54
2023/05/06 12:18:22;;;;;;;16.57;12.43;;;21.90;40.20;;;;;;5075420;28;20463;-52
2023/05/06 12:20:48;;;;;;;21.30;15.90;;;21.90;40.30;;;;;;5075363;28;20419;-52
2023/05/06 12:23:15;;;;;;;17.70;15.93;;;21.80;40.40;;;;;;5075031;28;20458;-55
2023/05/06 12:25:43;;;;;;;16.30;14.63;;;21.90;40.20;;;;;;5075548;28;20185;-53
2023/05/06 12:28:16;;;;;;;17.60;15.87;;;21.80;40.40;;;;;;5075179;28;20478;-52
2023/05/06 12:30:42;;;;;;;18.13;16.20;;;21.90;40.30;;;;;;5074916;28;20447;-54